Terminal Aerodrome Forecast
Issued by NWS

Current Version | Previous Version | Graphics & Text | Print | Product List | Glossary On
Versions: 1 2 3 4 5 6 7 8 9 10 11 12 13 14 15
000
FTUS41 KPBZ 301818 AAA
TAFMGW
TAF AMD
KMGW 301818Z 3018/3118 30004KT P6SM SCT050
      TEMPO 3018/3020 3SM -TSRA BKN040CB
     FM310900 00000KT 3SM BR FEW200
     FM311200 02003KT P6SM FEW250=

USA.gov is the U.S. government's official web portal to all federal, state and local government web resources and services.